San Angelo, Texas
Current Conditions -  °F | °C
As of 7:51 AM on Friday 24 Oct 2014 (Local Time) from KSJT Reporting Station
Moderate Fog Moderate Fog  
Wind Chill: 12°   Ceiling: Unl
Heat Index: 12°   Visibility: 0.5mi
Dew Point: 11°   Wind: 0mph
Humidity: 96%   Direction: NA
Pressure: 30.15"   Gusts: NA
Location:  31.46°N, 100.44°W
Report Text: KSJT 241251Z 00000KT 1/2SM FG CLR 12/11 A3015 RMK AO2 SLP199 T01170111 RVRNO
Loading
Personal Weather Stations






























Interactive Weather Map New forecast layout! Learn more

10-Day Weather Forecast

Advertisements
Track Severe Weather on mobile